LRBS/BBU METAR and TAF weather

Enter ICAO airport designator
Station Type Date Time Source
LRBS METAR 2020/09/18 08:30 UTC NOAA

LRBS 180830Z 08017KT CAVOK 20/09 Q1021 NOSIG


Station Type Date Time Source
LRBS Decoded METAR 2020/09/18 08:30 UTC NOAA

Bucuresti / Imh, Romania (LRBS) 44-30N 026-08E 91M
Sep 18, 2020 - 04:30 AM EDT / 2020.09.18 0830 UTC
Wind: from the E (080 degrees) at 20 MPH (17 KT):0
Visibility: greater than 7 mile(s):0
Temperature: 68 F (20 C)
Dew Point: 48 F (9 C)
Relative Humidity: 49%
Pressure (altimeter): 30.15 in. Hg (1021 hPa)
ob: LRBS 180830Z 08017KT CAVOK 20/09 Q1021 NOSIG
cycle: 8

Station Type Date Time Source
LRBS TAF 2020/09/18 06:37 UTC NOAA

TAF LRBS 180500Z 1806/1906 07015KT CAVOK
TEMPO 1806/1809 07018G28KT

Example: see airport list